Assaria, Kansas
Current Conditions -  °F | °C
As of 1:53 AM on Monday 24 Nov 2014 (Local Time) from KSLN Reporting Station
Clear Clear  
Wind Chill: 28°   Ceiling: Unl
Heat Index: 37°   Visibility: 10mi
Dew Point: 24°   Wind: 15mph
Humidity: 59%   Direction: 290°WNW
Pressure: 29.69"   Gusts: NA
Location:  38.68°N, 97.6°W
Report Text: KSLN 240753Z AUTO 29013KT 10SM CLR 03/M04 A2969 RMK AO2 SLP058 T00281044
Loading
Personal Weather Stations






























Interactive Weather Map New forecast layout! Learn more

10-Day Weather Forecast

Advertisements
Track Severe Weather on mobile